If you wish to contribute or participate in the discussions about articles you are invited to join SKYbrary as a registered user

 Actions

Okadama Airport

From SKYbrary Wiki

RJCO
Airport
ICAO: RJCO – IATA: OKD
Summary
Name Okadama Airport
Region Asia and Pacific
Territory Japan JP.gif
Location Okadama-cho, Hokkaidō
Serving Higashi-ku
Elevation 7.925 m
26 ft7.925 m
Coordinates 43° 6' 38.24" N, 141° 22' 55.73" E
Runways
Designator Length Width Surface ROPS
14/32 1500 m4,921.26 ft
45 m147.638 ft
ASP yes/yes


METAR
Observation RJCO 111000Z 32006KT 9999 FEW030 SCT080 05/01 Q1010
Station Sapporo Ab
Date/Time 11 April 2019 10:00:00
Wind direction 320°
Wind speed 06 kts
Lowest cloud amount few clouds
Temperature 5°C
Dew point 1°C
Humidity 75%
QNH 1010 hPa
Weather condition n/a

Sapporo Okadama Airport is an airport located in Okadama-chō, Higashi-ku, Sapporo, Hokkaido, 4 nm7,408 m
7.408 km
24,304.462 ft
north of the city center of Sapporo, Japan.

Climatology

Humid Sub-tropical climate (Köppen climate classification Dfa)

Maps

Terrain

Loading map...

Airport Layout

Loading map...


Accidents & Serious Incidents at or in vicinity of RJCO

None on SKYbrary